MPDA/DAV METAR and TAF weather

Enter ICAO airport designator
Station Type Date Time Source
MPDA METAR 2021/09/16 02:00 UTC NOAA

MPDA 160200Z 20003KT 9999 SCT016CB BKN100 23/23 Q1011


Station Type Date Time Source
MPDA Decoded METAR 2021/09/16 02:00 UTC NOAA

David, Panama (MPDA) 08-24N 082-25W 26M
Sep 15, 2021 - 10:00 PM EDT / 2021.09.16 0200 UTC
Wind: from the SSW (200 degrees) at 3 MPH (3 KT):0
Visibility: greater than 7 mile(s):0
Sky conditions: mostly cloudy
Weather: Cumulonimbus clouds observed
Temperature: 73 F (23 C)
Dew Point: 73 F (23 C)
Relative Humidity: 100%
Pressure (altimeter): 29.85 in. Hg (1011 hPa)
ob: MPDA 160200Z 20003KT 9999 SCT016CB BKN100 23/23 Q1011
cycle: 2

Station Type Date Time Source
MPDA TAF 2021/09/16 12:33 UTC NOAA

TAF TAF MPDA 161030Z 1612/1624 20008KT SCT015CB BKN100
TEMPO 1618/1620 7000 TSRA SCT016CB BKN070

Example: see airport list